Ackerman, Mississippi
Current Conditions -  °F | °C
As of 8:35 AM on Saturday 22 Nov 2014 (Local Time) from KSTF Reporting Station
Overcast Overcast  
Wind Chill: 54°   Ceiling: 12000
Heat Index: 54°   Visibility: NA
Dew Point: 41°   Wind: 9mph
Humidity: 62%   Direction: 150°SSE
Pressure: 30.31"   Gusts: NA
Location:  33.31°N, 89.17°W
Report Text: KSTF 221435Z AUTO 15008KT OVC120 12/05 A3031 RMK AO2 PWINO
Loading
Personal Weather Stations






























Interactive Weather Map New forecast layout! Learn more

10-Day Weather Forecast

Advertisements
Track Severe Weather on mobile